AirNav   Air Wisconsin pilot careers
 
 1084 users online  

8G8 Koons Airport
Salem, Ohio, USA

GOING TO SALEM?


FAA INFORMATION EFFECTIVE 21 JUNE 2018

Location

FAA Identifier: 8G8
Lat/Long: 40-53-00.2120N / 080-52-59.3050W
40-53.003533N / 080-52.988417W
40.8833922 / -80.8831403
(estimated)
Elevation: 1327 ft. / 404 m (estimated)
Variation: 07W (1985)
From city: 2 miles SW of SALEM, OH
Time zone: UTC -4 (UTC -5 during Standard Time)
Zip code: 44460

Airport Operations

Airport use: Open to the public
Control tower: no
ARTCC: CLEVELAND CENTER
FSS: CLEVELAND FLIGHT SERVICE STATION
NOTAMs facility: CLE (NOTAM-D service available)
Attendance: DAYLIGHT HOURS
Wind indicator: yes
Segmented circle: no

Airport Communications

CTAF: 122.9

Nearby radio navigation aids

VOR radial/distance  VOR name  Freq  Var
ACOr137/19.7AKRON VOR/DME114.4004W
BSVr075/26.4BRIGGS VOR/DME112.4004W
YNGr204/28.5YOUNGSTOWN VORTAC109.0005W
EWCr285/30.7ELLWOOD CITY VOR/DME115.8008W

 
NDB name  Hdg/Dist  Freq  Var  ID
CASTLE257/22.827209WUCP ..- -.-. .--.
CADIZ016/39.223907WCFX -.-. ..-. -..-

Airport Services

Parking: tiedowns
Airframe service: NONE
Powerplant service: NONE

Runway Information

Runway 9/27

Dimensions: 1850 x 100 ft. / 564 x 30 m
Surface: turf, in good condition
RUNWAY 9  RUNWAY 27
Latitude: 40-53.008667N40-52.998167N
Longitude: 080-53.188833W080-52.787667W
Elevation: 1327.0 ft.1327.0 ft.
Gradient: 1.4%1.4%
Traffic pattern: leftright
Runway end identifier lights: nono
Obstructions: 8 ft. crops, 125 ft. both sides of centerline
RWY 09: OBST CLNS SLOPE 7:1, DUE TO 55-FT TREE, 385-FT FM RWY 09, 55-FT L
70 ft. trees, 50 ft. from runway, 75 ft. left of centerline
RWY 27: OBST CLNS SLOPE 1:1, DUE TO 75-FT TREES 135-FT FM, RWY 27, 60-FT L

Airport Ownership and Management from official FAA records

Ownership: Privately-owned
Owner: DAVID & HARRY KOONS
1760 ST RTE 9
SALEM, OH 44460
Phone 330-337-7303
Manager: DAVID & HARRY KOONS
1760 ST RTE 9
SALEM, OH 44460
Phone 330-337-7303
ADNL CTC: 330-337-1780

Airport Operational Statistics

Aircraft based on the field: 9
Single engine airplanes: 7
Ultralights: 2
    
Aircraft operations: avg 49/week *
98% local general aviation
2% transient general aviation
<1% military
* for 12-month period ending 26 August 2017

Additional Remarks

FOR IFR CLEARANCE CTC CLEVELAND ARTCC (ZOB) 120.775/298.95 OR CALL ZOB 440-774-0489.
DEER, BIRDS & OTHER WILDLIFE ON & INVOF AIRPORT

Instrument Procedures

There are no published instrument procedures at 8G8.

Some nearby airports with instrument procedures:

38D - Salem Airpark Inc (4 nm N)
3G6 - Tri-City Airport (5 nm W)
4G4 - Youngstown Elser Metro Airport (10 nm NE)
02G - Columbiana County Airport (17 nm SE)
KTSO - Carroll County-Tolson Airport (21 nm SW)
 
Loc | Ops | Rwys | IFR | FBO | Links
Com | Nav | Svcs | Stats | Notes

City of Findlay
 
Area around 8G8 (Koons Airport)
 
Road maps at: MapQuest Bing Google
 
Aerial photo
WARNING: Photo may not be current or correct
Aerial photo of 8G8 (Koons Airport)
Photo by Rick Hunt
Photo taken 22-Mar-2015
looking south.

Do you have a better or more recent aerial photo of Koons Airport that you would like to share? If so, please send us your photo.

 
Sectional chart

 
Airport distance calculator
Flying to Koons Airport? Find the distance to fly.

From to 8G8

Sunrise and sunset
Times for 15-Jul-2018
 Local
(UTC-4)
 Zulu
(UTC)
Morning civil twilight05:3309:33
Sunrise06:0610:06
Sunset20:5300:53
Evening civil twilight21:2601:26

Current date and time
Zulu (UTC)  15-Jul-2018 23:17:42
Local (UTC-4)  15-Jul-2018 19:17:42
 
METAR
KUCP 
23nm E 
152256Z AUTO 16006KT 10SM CLR 25/21 A2999 RMK AO2 TSB01E47RAB02E37 SLP161 T02500206
KBVI 
23nm E 
152047Z 00000KT 10SM BKN050 31/20 A2999 RMK LTG DSNT SE LAST
KYNG 
24nm NE 
152251Z 02008KT 10SM SCT048 SCT250 31/22 A2998 RMK AO2 SLP140 CB DSNT SE T03110217
KPOV 
26nm NW 
152256Z AUTO 05003KT 10SM SCT048 30/19 A2998 RMK AO2 T03030194 PWINO
KCAK 
26nm W 
152251Z 26006KT 10SM TS FEW045CB SCT090 31/20 A2998 RMK AO2 SLP141 TSB15 FRQ LTGICCG SE-S TS SE-S MOV E T03060200
KAKR 
28nm W 
152254Z AUTO 34007KT 10SM FEW048 33/21 A2997 RMK AO2 SLP136 T03280206
KPHD 
35nm SW 
152253Z AUTO 17011G19KT 10SM VCTS BKN060 BKN075 29/21 A2999 RMK AO2 LTG DSNT S AND W SLP146 T02940211
KPIT 
36nm SE 
152251Z 17007KT 9SM TS FEW021 BKN048CB BKN095 23/22 A3001 RMK AO2 LTG DSNT S RAB10E47 SLP161 OCNL LTGIC VC SE-S TS VC SE-S MOV SE P0025 T02330222
KBTP 
43nm E 
152256Z AUTO 18006KT 10SM CLR 26/21 A3001 RMK AO2 LTG DSNT S AND SW SLP159 T02610206
KHLG 
44nm S 
152253Z 20004KT 10SM CLR 24/20 A3002 RMK AO2 LTG DSNT NE AND E SLP159 T02440200
TAF
KBVI 
23nm E 
151720Z 1518/1618 18003KT P6SM SCT040 BKN200 FM152100 24005KT P6SM VCTS BKN040CB FM152300 22003KT P6SM BKN040 FM161400 19005KT P6SM BKN035
KYNG 
24nm NE 
151731Z 1518/1618 VRB04KT P6SM VCSH SCT050 FM152000 VRB03KT P6SM SCT060 FM160900 VRB03KT 5SM BR SCT080 FM161300 23007KT P6SM SCT030
KCAK 
26nm W 
151731Z 1518/1618 22005KT P6SM SCT045 FM152100 23005KT P6SM VCTS BKN050CB FM152300 VRB04KT P6SM SCT050 FM160900 VRB03KT 5SM BR SCT080 FM161300 23007KT P6SM SCT030
NOTAMs
Click for the latest NOTAMs
NOTAMs are issued by the DoD/FAA and will open in a separate window not controlled by AirNav.

 

 
 

Would you like to see your business listed on this page?

 If your business provides an interesting product or service to pilots, flight crews, aircraft, or users of the Koons Airport, you should consider listing it here.  To start the listing process, click on the button below
 
Add a business
 

Other Pages about Koons Airport

Update a link
 
Copyright © AirNav, LLC. All rights reserved. Privacy Policy  Contact